sensor_id;sensor_type;location;lat;lon;timestamp;P1;durP1;ratioP1;P2;durP2;ratioP2
16760;SDS011;8498;52.516;13.790;2023-04-25T00:01:11;2.60;;;2.40;;
16760;SDS011;8498;52.516;13.790;2023-04-25T00:06:34;3.23;;;2.60;;
16760;SDS011;8498;52.516;13.790;2023-04-25T00:11:58;3.80;;;2.90;;
16760;SDS011;8498;52.516;13.790;2023-04-25T00:17:20;4.10;;;2.73;;
16760;SDS011;8498;52.516;13.790;2023-04-25T00:22:43;4.13;;;2.70;;
16760;SDS011;8498;52.516;13.790;2023-04-25T00:28:06;5.90;;;2.57;;
16760;SDS011;8498;52.516;13.790;2023-04-25T00:33:28;4.00;;;2.83;;
16760;SDS011;8498;52.516;13.790;2023-04-25T00:38:52;4.30;;;2.63;;
16760;SDS011;8498;52.516;13.790;2023-04-25T00:44:15;4.50;;;2.87;;
16760;SDS011;8498;52.516;13.790;2023-04-25T00:49:38;4.57;;;2.90;;
16760;SDS011;8498;52.516;13.790;2023-04-25T00:55:01;3.07;;;2.63;;
16760;SDS011;8498;52.516;13.790;2023-04-25T01:00:23;3.00;;;2.30;;
16760;SDS011;8498;52.516;13.790;2023-04-25T01:05:46;5.13;;;2.20;;
16760;SDS011;8498;52.516;13.790;2023-04-25T01:11:08;3.97;;;2.30;;
16760;SDS011;8498;52.516;13.790;2023-04-25T01:16:31;4.30;;;2.50;;
16760;SDS011;8498;52.516;13.790;2023-04-25T01:21:54;3.53;;;2.13;;
16760;SDS011;8498;52.516;13.790;2023-04-25T01:27:16;4.17;;;2.30;;
16760;SDS011;8498;52.516;13.790;2023-04-25T01:32:40;8.43;;;2.47;;
16760;SDS011;8498;52.516;13.790;2023-04-25T01:38:04;9.80;;;2.43;;
16760;SDS011;8498;52.516;13.790;2023-04-25T01:43:27;3.73;;;1.87;;
16760;SDS011;8498;52.516;13.790;2023-04-25T01:48:50;4.33;;;2.20;;
16760;SDS011;8498;52.516;13.790;2023-04-25T01:54:13;6.33;;;2.67;;
16760;SDS011;8498;52.516;13.790;2023-04-25T01:59:36;5.37;;;2.47;;
16760;SDS011;8498;52.516;13.790;2023-04-25T02:05:10;8.37;;;3.07;;
16760;SDS011;8498;52.516;13.790;2023-04-25T02:10:34;8.27;;;2.67;;
16760;SDS011;8498;52.516;13.790;2023-04-25T02:16:12;5.43;;;2.70;;
16760;SDS011;8498;52.516;13.790;2023-04-25T02:21:35;6.60;;;2.60;;
16760;SDS011;8498;52.516;13.790;2023-04-25T02:26:58;6.80;;;2.87;;
16760;SDS011;8498;52.516;13.790;2023-04-25T02:32:20;3.97;;;2.40;;
16760;SDS011;8498;52.516;13.790;2023-04-25T02:37:43;6.53;;;2.80;;
16760;SDS011;8498;52.516;13.790;2023-04-25T02:43:07;9.53;;;2.80;;
16760;SDS011;8498;52.516;13.790;2023-04-25T02:48:29;7.10;;;2.80;;
16760;SDS011;8498;52.516;13.790;2023-04-25T02:53:52;4.67;;;2.50;;
16760;SDS011;8498;52.516;13.790;2023-04-25T02:59:15;7.03;;;2.73;;
16760;SDS011;8498;52.516;13.790;2023-04-25T03:04:37;7.40;;;3.20;;
16760;SDS011;8498;52.516;13.790;2023-04-25T03:09:59;5.60;;;2.47;;
16760;SDS011;8498;52.516;13.790;2023-04-25T03:15:24;5.10;;;2.67;;
16760;SDS011;8498;52.516;13.790;2023-04-25T03:20:47;7.90;;;2.60;;
16760;SDS011;8498;52.516;13.790;2023-04-25T03:26:09;2.73;;;2.50;;
16760;SDS011;8498;52.516;13.790;2023-04-25T03:31:32;6.27;;;2.63;;
16760;SDS011;8498;52.516;13.790;2023-04-25T03:36:54;4.23;;;3.53;;
16760;SDS011;8498;52.516;13.790;2023-04-25T03:42:17;6.00;;;2.90;;
16760;SDS011;8498;52.516;13.790;2023-04-25T03:47:40;9.53;;;3.20;;
16760;SDS011;8498;52.516;13.790;2023-04-25T03:53:03;6.83;;;3.47;;
16760;SDS011;8498;52.516;13.790;2023-04-25T03:58:39;4.83;;;3.23;;
16760;SDS011;8498;52.516;13.790;2023-04-25T04:04:02;8.07;;;3.07;;
16760;SDS011;8498;52.516;13.790;2023-04-25T04:09:25;8.10;;;3.50;;
16760;SDS011;8498;52.516;13.790;2023-04-25T04:14:49;6.67;;;4.37;;
16760;SDS011;8498;52.516;13.790;2023-04-25T04:20:12;8.17;;;3.97;;
16760;SDS011;8498;52.516;13.790;2023-04-25T04:25:35;11.67;;;3.47;;
16760;SDS011;8498;52.516;13.790;2023-04-25T04:31:13;9.20;;;3.20;;
16760;SDS011;8498;52.516;13.790;2023-04-25T04:36:39;11.30;;;3.90;;
16760;SDS011;8498;52.516;13.790;2023-04-25T04:42:02;11.03;;;3.80;;
16760;SDS011;8498;52.516;13.790;2023-04-25T04:47:36;6.33;;;3.57;;
16760;SDS011;8498;52.516;13.790;2023-04-25T04:53:18;7.47;;;3.60;;
16760;SDS011;8498;52.516;13.790;2023-04-25T04:59:00;8.73;;;3.40;;
16760;SDS011;8498;52.516;13.790;2023-04-25T05:04:29;10.37;;;3.90;;
16760;SDS011;8498;52.516;13.790;2023-04-25T05:10:21;8.53;;;3.57;;
16760;SDS011;8498;52.516;13.790;2023-04-25T05:16:06;5.17;;;3.50;;
16760;SDS011;8498;52.516;13.790;2023-04-25T05:21:39;7.77;;;3.40;;
16760;SDS011;8498;52.516;13.790;2023-04-25T05:27:08;11.67;;;3.33;;
16760;SDS011;8498;52.516;13.790;2023-04-25T05:32:40;6.37;;;3.43;;
16760;SDS011;8498;52.516;13.790;2023-04-25T05:38:02;5.83;;;3.13;;
16760;SDS011;8498;52.516;13.790;2023-04-25T05:43:57;6.23;;;3.23;;
16760;SDS011;8498;52.516;13.790;2023-04-25T05:49:35;7.43;;;3.63;;
16760;SDS011;8498;52.516;13.790;2023-04-25T05:55:33;8.03;;;3.47;;
16760;SDS011;8498;52.516;13.790;2023-04-25T06:01:06;10.93;;;3.43;;
16760;SDS011;8498;52.516;13.790;2023-04-25T06:06:28;7.50;;;3.47;;
16760;SDS011;8498;52.516;13.790;2023-04-25T06:11:53;5.30;;;3.13;;
16760;SDS011;8498;52.516;13.790;2023-04-25T06:17:15;7.00;;;3.47;;
16760;SDS011;8498;52.516;13.790;2023-04-25T06:22:38;12.73;;;4.03;;
16760;SDS011;8498;52.516;13.790;2023-04-25T06:28:00;7.83;;;4.00;;
16760;SDS011;8498;52.516;13.790;2023-04-25T06:33:23;7.10;;;3.77;;
16760;SDS011;8498;52.516;13.790;2023-04-25T06:38:47;9.80;;;3.97;;
16760;SDS011;8498;52.516;13.790;2023-04-25T06:44:10;7.50;;;3.73;;
16760;SDS011;8498;52.516;13.790;2023-04-25T06:49:44;7.57;;;4.20;;
16760;SDS011;8498;52.516;13.790;2023-04-25T06:55:07;7.63;;;4.40;;
16760;SDS011;8498;52.516;13.790;2023-04-25T07:00:46;8.73;;;4.63;;
16760;SDS011;8498;52.516;13.790;2023-04-25T07:06:08;10.70;;;4.23;;
16760;SDS011;8498;52.516;13.790;2023-04-25T07:11:31;8.43;;;4.70;;
16760;SDS011;8498;52.516;13.790;2023-04-25T07:16:54;10.70;;;4.80;;
16760;SDS011;8498;52.516;13.790;2023-04-25T07:22:20;8.00;;;4.10;;
16760;SDS011;8498;52.516;13.790;2023-04-25T07:27:43;5.03;;;4.00;;
16760;SDS011;8498;52.516;13.790;2023-04-25T07:33:10;7.63;;;4.20;;
16760;SDS011;8498;52.516;13.790;2023-04-25T07:38:32;9.30;;;3.90;;
16760;SDS011;8498;52.516;13.790;2023-04-25T07:43:55;7.27;;;3.60;;
16760;SDS011;8498;52.516;13.790;2023-04-25T07:49:18;9.50;;;4.50;;
16760;SDS011;8498;52.516;13.790;2023-04-25T07:54:40;6.27;;;4.00;;
16760;SDS011;8498;52.516;13.790;2023-04-25T08:00:10;6.43;;;4.33;;
16760;SDS011;8498;52.516;13.790;2023-04-25T08:05:41;10.20;;;4.20;;
16760;SDS011;8498;52.516;13.790;2023-04-25T08:11:04;5.27;;;3.43;;
16760;SDS011;8498;52.516;13.790;2023-04-25T08:16:26;5.83;;;3.50;;
16760;SDS011;8498;52.516;13.790;2023-04-25T08:21:49;7.23;;;4.07;;
16760;SDS011;8498;52.516;13.790;2023-04-25T08:27:20;9.77;;;3.50;;
16760;SDS011;8498;52.516;13.790;2023-04-25T08:32:43;6.07;;;3.57;;
16760;SDS011;8498;52.516;13.790;2023-04-25T08:38:41;15.97;;;3.40;;
16760;SDS011;8498;52.516;13.790;2023-04-25T08:44:05;7.80;;;3.57;;
16760;SDS011;8498;52.516;13.790;2023-04-25T08:49:32;9.67;;;3.03;;
16760;SDS011;8498;52.516;13.790;2023-04-25T08:54:55;17.97;;;4.17;;
16760;SDS011;8498;52.516;13.790;2023-04-25T09:00:22;12.40;;;3.10;;
16760;SDS011;8498;52.516;13.790;2023-04-25T09:05:45;13.77;;;2.90;;
16760;SDS011;8498;52.516;13.790;2023-04-25T09:11:10;9.33;;;2.77;;
16760;SDS011;8498;52.516;13.790;2023-04-25T09:16:34;9.20;;;3.20;;
16760;SDS011;8498;52.516;13.790;2023-04-25T09:22:22;13.80;;;3.40;;
16760;SDS011;8498;52.516;13.790;2023-04-25T09:27:52;16.10;;;2.90;;
16760;SDS011;8498;52.516;13.790;2023-04-25T09:33:23;15.40;;;3.17;;
16760;SDS011;8498;52.516;13.790;2023-04-25T09:38:51;9.33;;;2.50;;
16760;SDS011;8498;52.516;13.790;2023-04-25T09:44:26;7.00;;;2.70;;
16760;SDS011;8498;52.516;13.790;2023-04-25T09:49:50;11.80;;;2.80;;
16760;SDS011;8498;52.516;13.790;2023-04-25T09:55:15;9.97;;;2.70;;
16760;SDS011;8498;52.516;13.790;2023-04-25T10:00:39;11.97;;;2.60;;
16760;SDS011;8498;52.516;13.790;2023-04-25T10:06:19;7.40;;;2.50;;
16760;SDS011;8498;52.516;13.790;2023-04-25T10:11:45;8.43;;;2.40;;
16760;SDS011;8498;52.516;13.790;2023-04-25T10:17:10;13.07;;;2.70;;
16760;SDS011;8498;52.516;13.790;2023-04-25T10:22:34;11.30;;;2.50;;
16760;SDS011;8498;52.516;13.790;2023-04-25T10:28:00;11.93;;;2.43;;
16760;SDS011;8498;52.516;13.790;2023-04-25T10:33:36;10.13;;;3.43;;
16760;SDS011;8498;52.516;13.790;2023-04-25T10:39:04;8.03;;;2.40;;
16760;SDS011;8498;52.516;13.790;2023-04-25T10:44:31;5.93;;;2.07;;
16760;SDS011;8498;52.516;13.790;2023-04-25T10:49:53;6.87;;;2.43;;
16760;SDS011;8498;52.516;13.790;2023-04-25T10:55:16;5.73;;;2.30;;
16760;SDS011;8498;52.516;13.790;2023-04-25T11:00:38;8.50;;;2.23;;
16760;SDS011;8498;52.516;13.790;2023-04-25T11:12:16;9.77;;;2.10;;
16760;SDS011;8498;52.516;13.790;2023-04-25T11:17:39;10.63;;;2.27;;
16760;SDS011;8498;52.516;13.790;2023-04-25T11:23:04;8.87;;;2.50;;
16760;SDS011;8498;52.516;13.790;2023-04-25T11:28:26;12.53;;;3.00;;
16760;SDS011;8498;52.516;13.790;2023-04-25T11:33:48;7.10;;;2.33;;
16760;SDS011;8498;52.516;13.790;2023-04-25T11:39:12;10.20;;;2.37;;
16760;SDS011;8498;52.516;13.790;2023-04-25T11:44:34;5.90;;;2.33;;
16760;SDS011;8498;52.516;13.790;2023-04-25T11:49:58;7.57;;;2.27;;
16760;SDS011;8498;52.516;13.790;2023-04-25T11:55:21;6.13;;;1.90;;
16760;SDS011;8498;52.516;13.790;2023-04-25T12:00:43;5.67;;;2.20;;
16760;SDS011;8498;52.516;13.790;2023-04-25T12:06:11;8.83;;;1.80;;
16760;SDS011;8498;52.516;13.790;2023-04-25T12:11:43;11.77;;;1.90;;
16760;SDS011;8498;52.516;13.790;2023-04-25T12:17:07;6.77;;;1.90;;
16760;SDS011;8498;52.516;13.790;2023-04-25T12:22:30;4.10;;;1.80;;
16760;SDS011;8498;52.516;13.790;2023-04-25T12:27:53;6.80;;;1.83;;
16760;SDS011;8498;52.516;13.790;2023-04-25T12:33:16;5.60;;;1.60;;
16760;SDS011;8498;52.516;13.790;2023-04-25T12:38:39;3.23;;;1.50;;
16760;SDS011;8498;52.516;13.790;2023-04-25T12:44:03;5.63;;;2.03;;
16760;SDS011;8498;52.516;13.790;2023-04-25T12:49:26;2.30;;;1.57;;
16760;SDS011;8498;52.516;13.790;2023-04-25T12:54:48;6.50;;;2.40;;
16760;SDS011;8498;52.516;13.790;2023-04-25T13:00:10;3.40;;;1.90;;
16760;SDS011;8498;52.516;13.790;2023-04-25T13:05:36;4.93;;;1.60;;
16760;SDS011;8498;52.516;13.790;2023-04-25T13:10:59;4.27;;;1.83;;
16760;SDS011;8498;52.516;13.790;2023-04-25T13:16:22;5.17;;;2.13;;
16760;SDS011;8498;52.516;13.790;2023-04-25T13:21:44;5.50;;;1.77;;
16760;SDS011;8498;52.516;13.790;2023-04-25T13:27:07;10.77;;;1.87;;
16760;SDS011;8498;52.516;13.790;2023-04-25T13:32:29;4.23;;;1.70;;
16760;SDS011;8498;52.516;13.790;2023-04-25T13:37:52;7.30;;;1.93;;
16760;SDS011;8498;52.516;13.790;2023-04-25T13:43:14;5.87;;;1.90;;
16760;SDS011;8498;52.516;13.790;2023-04-25T13:48:37;5.17;;;1.60;;
16760;SDS011;8498;52.516;13.790;2023-04-25T13:53:59;4.57;;;2.00;;
16760;SDS011;8498;52.516;13.790;2023-04-25T13:59:21;3.57;;;1.30;;
16760;SDS011;8498;52.516;13.790;2023-04-25T14:04:44;5.33;;;1.60;;
16760;SDS011;8498;52.516;13.790;2023-04-25T14:10:06;4.80;;;1.33;;
16760;SDS011;8498;52.516;13.790;2023-04-25T14:15:33;5.17;;;1.60;;
16760;SDS011;8498;52.516;13.790;2023-04-25T14:20:56;5.83;;;1.60;;
16760;SDS011;8498;52.516;13.790;2023-04-25T14:26:19;7.50;;;1.60;;
16760;SDS011;8498;52.516;13.790;2023-04-25T14:31:42;5.53;;;1.70;;
16760;SDS011;8498;52.516;13.790;2023-04-25T14:37:04;4.30;;;1.50;;
16760;SDS011;8498;52.516;13.790;2023-04-25T14:42:27;8.07;;;1.90;;
16760;SDS011;8498;52.516;13.790;2023-04-25T14:47:49;5.60;;;1.60;;
16760;SDS011;8498;52.516;13.790;2023-04-25T14:53:12;3.87;;;1.10;;
16760;SDS011;8498;52.516;13.790;2023-04-25T14:58:35;2.23;;;1.70;;
16760;SDS011;8498;52.516;13.790;2023-04-25T15:03:57;4.17;;;1.57;;
16760;SDS011;8498;52.516;13.790;2023-04-25T15:09:20;5.30;;;1.30;;
16760;SDS011;8498;52.516;13.790;2023-04-25T15:14:45;4.50;;;1.50;;
16760;SDS011;8498;52.516;13.790;2023-04-25T15:20:08;7.70;;;1.80;;
16760;SDS011;8498;52.516;13.790;2023-04-25T15:25:31;4.50;;;1.80;;
16760;SDS011;8498;52.516;13.790;2023-04-25T15:30:54;3.27;;;1.50;;
16760;SDS011;8498;52.516;13.790;2023-04-25T15:36:16;6.27;;;1.57;;
16760;SDS011;8498;52.516;13.790;2023-04-25T15:41:40;4.57;;;1.63;;
16760;SDS011;8498;52.516;13.790;2023-04-25T15:47:02;6.33;;;2.73;;
16760;SDS011;8498;52.516;13.790;2023-04-25T15:52:25;1.63;;;1.53;;
16760;SDS011;8498;52.516;13.790;2023-04-25T15:57:48;5.47;;;1.80;;
16760;SDS011;8498;52.516;13.790;2023-04-25T16:03:11;3.17;;;1.50;;
16760;SDS011;8498;52.516;13.790;2023-04-25T16:08:34;2.40;;;1.27;;
16760;SDS011;8498;52.516;13.790;2023-04-25T16:13:57;3.07;;;1.60;;
16760;SDS011;8498;52.516;13.790;2023-04-25T16:19:19;4.30;;;1.23;;
16760;SDS011;8498;52.516;13.790;2023-04-25T16:24:42;3.23;;;1.20;;
16760;SDS011;8498;52.516;13.790;2023-04-25T16:30:07;5.63;;;1.10;;
16760;SDS011;8498;52.516;13.790;2023-04-25T16:35:30;2.17;;;1.10;;
16760;SDS011;8498;52.516;13.790;2023-04-25T16:40:53;2.63;;;1.17;;
16760;SDS011;8498;52.516;13.790;2023-04-25T16:46:15;2.63;;;1.57;;
16760;SDS011;8498;52.516;13.790;2023-04-25T16:51:40;4.73;;;1.23;;
16760;SDS011;8498;52.516;13.790;2023-04-25T16:57:02;1.83;;;1.30;;
16760;SDS011;8498;52.516;13.790;2023-04-25T17:02:26;3.87;;;1.33;;
16760;SDS011;8498;52.516;13.790;2023-04-25T17:07:49;2.30;;;1.27;;
16760;SDS011;8498;52.516;13.790;2023-04-25T17:13:11;2.10;;;1.00;;
16760;SDS011;8498;52.516;13.790;2023-04-25T17:18:34;3.33;;;1.40;;
16760;SDS011;8498;52.516;13.790;2023-04-25T17:23:57;1.60;;;1.20;;
16760;SDS011;8498;52.516;13.790;2023-04-25T17:29:20;3.33;;;1.20;;
16760;SDS011;8498;52.516;13.790;2023-04-25T17:34:44;2.60;;;1.00;;
16760;SDS011;8498;52.516;13.790;2023-04-25T17:40:07;1.80;;;1.00;;
16760;SDS011;8498;52.516;13.790;2023-04-25T17:45:33;2.93;;;1.30;;
16760;SDS011;8498;52.516;13.790;2023-04-25T17:50:56;3.67;;;1.30;;
16760;SDS011;8498;52.516;13.790;2023-04-25T17:56:19;6.60;;;1.10;;
16760;SDS011;8498;52.516;13.790;2023-04-25T18:01:48;4.67;;;1.50;;
16760;SDS011;8498;52.516;13.790;2023-04-25T18:07:11;2.60;;;1.47;;
16760;SDS011;8498;52.516;13.790;2023-04-25T18:12:34;4.80;;;1.57;;
16760;SDS011;8498;52.516;13.790;2023-04-25T18:17:57;1.97;;;1.23;;
16760;SDS011;8498;52.516;13.790;2023-04-25T18:23:20;6.60;;;1.50;;
16760;SDS011;8498;52.516;13.790;2023-04-25T18:28:42;4.80;;;1.57;;
16760;SDS011;8498;52.516;13.790;2023-04-25T18:34:05;8.53;;;2.40;;
16760;SDS011;8498;52.516;13.790;2023-04-25T18:39:28;4.27;;;1.67;;
16760;SDS011;8498;52.516;13.790;2023-04-25T18:44:51;1.97;;;1.50;;
16760;SDS011;8498;52.516;13.790;2023-04-25T18:50:13;2.93;;;1.37;;
16760;SDS011;8498;52.516;13.790;2023-04-25T18:55:36;5.20;;;2.40;;
16760;SDS011;8498;52.516;13.790;2023-04-25T19:00:59;4.77;;;2.23;;
16760;SDS011;8498;52.516;13.790;2023-04-25T19:06:26;6.93;;;2.03;;
16760;SDS011;8498;52.516;13.790;2023-04-25T19:11:50;5.23;;;2.00;;
16760;SDS011;8498;52.516;13.790;2023-04-25T19:17:12;9.50;;;1.93;;
16760;SDS011;8498;52.516;13.790;2023-04-25T19:22:35;3.33;;;2.20;;
16760;SDS011;8498;52.516;13.790;2023-04-25T19:27:58;9.57;;;2.50;;
16760;SDS011;8498;52.516;13.790;2023-04-25T19:33:21;2.73;;;1.70;;
16760;SDS011;8498;52.516;13.790;2023-04-25T19:38:44;5.67;;;2.60;;
16760;SDS011;8498;52.516;13.790;2023-04-25T19:44:07;5.10;;;2.00;;
16760;SDS011;8498;52.516;13.790;2023-04-25T19:49:30;3.03;;;1.90;;
16760;SDS011;8498;52.516;13.790;2023-04-25T19:54:52;3.93;;;1.70;;
16760;SDS011;8498;52.516;13.790;2023-04-25T20:00:19;4.27;;;1.77;;
16760;SDS011;8498;52.516;13.790;2023-04-25T20:05:43;3.07;;;1.30;;
16760;SDS011;8498;52.516;13.790;2023-04-25T20:11:05;2.23;;;1.33;;
16760;SDS011;8498;52.516;13.790;2023-04-25T20:16:28;3.83;;;1.87;;
16760;SDS011;8498;52.516;13.790;2023-04-25T20:21:51;5.50;;;1.50;;
16760;SDS011;8498;52.516;13.790;2023-04-25T20:27:13;2.80;;;1.17;;
16760;SDS011;8498;52.516;13.790;2023-04-25T20:32:35;4.30;;;1.17;;
16760;SDS011;8498;52.516;13.790;2023-04-25T20:37:58;3.10;;;1.70;;
16760;SDS011;8498;52.516;13.790;2023-04-25T20:43:20;3.60;;;1.60;;
16760;SDS011;8498;52.516;13.790;2023-04-25T20:48:44;3.80;;;1.63;;
16760;SDS011;8498;52.516;13.790;2023-04-25T20:54:07;2.63;;;1.40;;
16760;SDS011;8498;52.516;13.790;2023-04-25T20:59:32;4.17;;;1.80;;
16760;SDS011;8498;52.516;13.790;2023-04-25T21:04:54;8.43;;;1.40;;
16760;SDS011;8498;52.516;13.790;2023-04-25T21:10:16;5.30;;;1.53;;
16760;SDS011;8498;52.516;13.790;2023-04-25T21:15:39;4.03;;;1.10;;
16760;SDS011;8498;52.516;13.790;2023-04-25T21:21:02;4.90;;;1.50;;
16760;SDS011;8498;52.516;13.790;2023-04-25T21:26:25;2.90;;;1.33;;
16760;SDS011;8498;52.516;13.790;2023-04-25T21:31:48;6.70;;;1.60;;
16760;SDS011;8498;52.516;13.790;2023-04-25T21:37:11;5.57;;;1.40;;
16760;SDS011;8498;52.516;13.790;2023-04-25T21:42:34;3.00;;;1.47;;
16760;SDS011;8498;52.516;13.790;2023-04-25T21:47:59;4.43;;;1.20;;
16760;SDS011;8498;52.516;13.790;2023-04-25T21:53:22;1.23;;;1.13;;
16760;SDS011;8498;52.516;13.790;2023-04-25T21:58:47;1.50;;;1.40;;
16760;SDS011;8498;52.516;13.790;2023-04-25T22:04:10;2.90;;;1.40;;
16760;SDS011;8498;52.516;13.790;2023-04-25T22:09:32;6.60;;;1.57;;
16760;SDS011;8498;52.516;13.790;2023-04-25T22:15:12;5.47;;;1.33;;
16760;SDS011;8498;52.516;13.790;2023-04-25T22:20:35;5.60;;;1.53;;
16760;SDS011;8498;52.516;13.790;2023-04-25T22:25:57;3.57;;;1.20;;
16760;SDS011;8498;52.516;13.790;2023-04-25T22:31:20;5.33;;;1.30;;
16760;SDS011;8498;52.516;13.790;2023-04-25T22:36:43;1.73;;;1.40;;
16760;SDS011;8498;52.516;13.790;2023-04-25T22:42:05;4.10;;;1.23;;
16760;SDS011;8498;52.516;13.790;2023-04-25T22:47:28;2.43;;;1.30;;
16760;SDS011;8498;52.516;13.790;2023-04-25T22:52:50;3.40;;;1.37;;
16760;SDS011;8498;52.516;13.790;2023-04-25T22:58:12;2.73;;;1.20;;
16760;SDS011;8498;52.516;13.790;2023-04-25T23:03:35;3.83;;;1.30;;
16760;SDS011;8498;52.516;13.790;2023-04-25T23:08:58;5.73;;;1.43;;
16760;SDS011;8498;52.516;13.790;2023-04-25T23:14:21;3.90;;;1.27;;
16760;SDS011;8498;52.516;13.790;2023-04-25T23:19:44;4.13;;;1.23;;
16760;SDS011;8498;52.516;13.790;2023-04-25T23:25:07;6.23;;;1.37;;
16760;SDS011;8498;52.516;13.790;2023-04-25T23:30:30;6.97;;;1.50;;
16760;SDS011;8498;52.516;13.790;2023-04-25T23:35:52;5.77;;;1.30;;
16760;SDS011;8498;52.516;13.790;2023-04-25T23:41:15;5.00;;;1.40;;
16760;SDS011;8498;52.516;13.790;2023-04-25T23:46:37;7.90;;;1.63;;
16760;SDS011;8498;52.516;13.790;2023-04-25T23:52:00;4.17;;;1.50;;
16760;SDS011;8498;52.516;13.790;2023-04-25T23:57:22;6.93;;;1.50;;
